sensor_id;sensor_type;location;lat;lon;timestamp;temperature;humidity
68813;DHT22;55808;48.112;11.552;2022-07-18T00:01:31;18.10;99.90
68813;DHT22;55808;48.112;11.552;2022-07-18T00:03:57;18.00;99.90
68813;DHT22;55808;48.112;11.552;2022-07-18T00:06:22;17.80;99.90
68813;DHT22;55808;48.112;11.552;2022-07-18T00:08:48;17.50;99.90
68813;DHT22;55808;48.112;11.552;2022-07-18T00:11:14;17.60;99.90
68813;DHT22;55808;48.112;11.552;2022-07-18T00:13:39;17.70;99.90
68813;DHT22;55808;48.112;11.552;2022-07-18T00:16:05;17.70;99.90
68813;DHT22;55808;48.112;11.552;2022-07-18T00:18:31;17.70;99.90
68813;DHT22;55808;48.112;11.552;2022-07-18T00:20:56;17.60;99.90
68813;DHT22;55808;48.112;11.552;2022-07-18T00:23:22;17.70;99.90
68813;DHT22;55808;48.112;11.552;2022-07-18T00:25:48;17.50;99.90
68813;DHT22;55808;48.112;11.552;2022-07-18T00:28:13;17.40;99.90
68813;DHT22;55808;48.112;11.552;2022-07-18T00:30:40;17.50;99.90
68813;DHT22;55808;48.112;11.552;2022-07-18T00:33:06;17.40;99.90
68813;DHT22;55808;48.112;11.552;2022-07-18T00:35:32;17.40;99.90
68813;DHT22;55808;48.112;11.552;2022-07-18T00:37:58;17.30;99.90
68813;DHT22;55808;48.112;11.552;2022-07-18T00:40:24;17.30;99.90
68813;DHT22;55808;48.112;11.552;2022-07-18T00:42:49;17.30;99.90
68813;DHT22;55808;48.112;11.552;2022-07-18T00:45:15;17.30;99.90
68813;DHT22;55808;48.112;11.552;2022-07-18T00:47:41;17.20;99.90
68813;DHT22;55808;48.112;11.552;2022-07-18T00:50:08;17.20;99.90
68813;DHT22;55808;48.112;11.552;2022-07-18T00:52:35;17.00;99.90
68813;DHT22;55808;48.112;11.552;2022-07-18T00:55:03;17.00;99.90
68813;DHT22;55808;48.112;11.552;2022-07-18T00:57:29;17.00;99.90
68813;DHT22;55808;48.112;11.552;2022-07-18T00:59:55;16.90;99.90
68813;DHT22;55808;48.112;11.552;2022-07-18T01:02:39;16.80;99.90
68813;DHT22;55808;48.112;11.552;2022-07-18T01:05:08;16.80;99.90
68813;DHT22;55808;48.112;11.552;2022-07-18T01:07:35;16.80;99.90
68813;DHT22;55808;48.112;11.552;2022-07-18T01:10:01;16.80;99.90
68813;DHT22;55808;48.112;11.552;2022-07-18T01:12:27;16.80;99.90
68813;DHT22;55808;48.112;11.552;2022-07-18T01:14:52;16.70;99.90
68813;DHT22;55808;48.112;11.552;2022-07-18T01:17:19;16.60;99.90
68813;DHT22;55808;48.112;11.552;2022-07-18T01:19:46;16.70;99.90
68813;DHT22;55808;48.112;11.552;2022-07-18T01:22:13;16.80;99.90
68813;DHT22;55808;48.112;11.552;2022-07-18T01:24:39;16.80;99.90
68813;DHT22;55808;48.112;11.552;2022-07-18T01:27:06;16.70;99.90
68813;DHT22;55808;48.112;11.552;2022-07-18T01:29:32;16.60;99.90
68813;DHT22;55808;48.112;11.552;2022-07-18T01:32:04;16.60;99.90
68813;DHT22;55808;48.112;11.552;2022-07-18T01:34:30;16.60;99.90
68813;DHT22;55808;48.112;11.552;2022-07-18T01:36:56;16.60;99.90
68813;DHT22;55808;48.112;11.552;2022-07-18T01:39:21;16.70;99.90
68813;DHT22;55808;48.112;11.552;2022-07-18T01:41:58;16.60;99.90
68813;DHT22;55808;48.112;11.552;2022-07-18T01:44:25;16.50;99.90
68813;DHT22;55808;48.112;11.552;2022-07-18T01:46:51;16.30;99.90
68813;DHT22;55808;48.112;11.552;2022-07-18T01:49:18;16.30;99.90
68813;DHT22;55808;48.112;11.552;2022-07-18T01:51:48;16.40;99.90
68813;DHT22;55808;48.112;11.552;2022-07-18T01:54:14;16.30;99.90
68813;DHT22;55808;48.112;11.552;2022-07-18T01:56:40;16.20;99.90
68813;DHT22;55808;48.112;11.552;2022-07-18T01:59:05;16.20;99.90
68813;DHT22;55808;48.112;11.552;2022-07-18T02:01:31;16.30;99.90
68813;DHT22;55808;48.112;11.552;2022-07-18T02:03:57;16.30;99.90
68813;DHT22;55808;48.112;11.552;2022-07-18T02:06:22;16.30;99.90
68813;DHT22;55808;48.112;11.552;2022-07-18T02:08:48;16.30;99.90
68813;DHT22;55808;48.112;11.552;2022-07-18T02:11:13;16.20;99.90
68813;DHT22;55808;48.112;11.552;2022-07-18T02:13:39;16.20;99.90
68813;DHT22;55808;48.112;11.552;2022-07-18T02:16:05;16.20;99.90
68813;DHT22;55808;48.112;11.552;2022-07-18T02:18:33;16.00;99.90
68813;DHT22;55808;48.112;11.552;2022-07-18T02:20:59;16.00;99.90
68813;DHT22;55808;48.112;11.552;2022-07-18T02:23:26;16.10;99.90
68813;DHT22;55808;48.112;11.552;2022-07-18T02:25:51;16.20;99.90
68813;DHT22;55808;48.112;11.552;2022-07-18T02:28:17;16.20;99.90
68813;DHT22;55808;48.112;11.552;2022-07-18T02:30:43;16.20;99.90
68813;DHT22;55808;48.112;11.552;2022-07-18T02:33:09;16.10;99.90
68813;DHT22;55808;48.112;11.552;2022-07-18T02:35:35;16.00;99.90
68813;DHT22;55808;48.112;11.552;2022-07-18T02:38:02;15.90;99.90
68813;DHT22;55808;48.112;11.552;2022-07-18T02:40:28;15.80;99.90
68813;DHT22;55808;48.112;11.552;2022-07-18T02:42:53;15.90;99.90
68813;DHT22;55808;48.112;11.552;2022-07-18T02:45:19;15.90;99.90
68813;DHT22;55808;48.112;11.552;2022-07-18T02:47:45;15.80;99.90
68813;DHT22;55808;48.112;11.552;2022-07-18T02:50:11;15.70;99.90
68813;DHT22;55808;48.112;11.552;2022-07-18T02:52:39;15.90;99.90
68813;DHT22;55808;48.112;11.552;2022-07-18T02:55:06;15.80;99.90
68813;DHT22;55808;48.112;11.552;2022-07-18T02:57:32;15.80;99.90
68813;DHT22;55808;48.112;11.552;2022-07-18T02:59:58;15.90;99.90
68813;DHT22;55808;48.112;11.552;2022-07-18T03:02:24;16.00;99.90
68813;DHT22;55808;48.112;11.552;2022-07-18T03:04:49;15.80;99.90
68813;DHT22;55808;48.112;11.552;2022-07-18T03:07:15;15.80;99.90
68813;DHT22;55808;48.112;11.552;2022-07-18T03:09:40;15.80;99.90
68813;DHT22;55808;48.112;11.552;2022-07-18T03:12:06;15.70;99.90
68813;DHT22;55808;48.112;11.552;2022-07-18T03:14:32;15.80;99.90
68813;DHT22;55808;48.112;11.552;2022-07-18T03:16:58;15.80;99.90
68813;DHT22;55808;48.112;11.552;2022-07-18T03:19:23;15.80;99.90
68813;DHT22;55808;48.112;11.552;2022-07-18T03:21:49;15.90;99.90
68813;DHT22;55808;48.112;11.552;2022-07-18T03:24:16;15.70;99.90
68813;DHT22;55808;48.112;11.552;2022-07-18T03:26:42;15.70;99.90
68813;DHT22;55808;48.112;11.552;2022-07-18T03:29:09;15.80;99.90
68813;DHT22;55808;48.112;11.552;2022-07-18T03:31:35;15.80;99.90
68813;DHT22;55808;48.112;11.552;2022-07-18T03:34:00;15.70;99.90
68813;DHT22;55808;48.112;11.552;2022-07-18T03:36:26;15.80;99.90
68813;DHT22;55808;48.112;11.552;2022-07-18T03:38:52;15.70;99.90
68813;DHT22;55808;48.112;11.552;2022-07-18T03:41:17;15.80;99.90
68813;DHT22;55808;48.112;11.552;2022-07-18T03:43:43;15.70;99.90
68813;DHT22;55808;48.112;11.552;2022-07-18T03:46:12;15.70;99.90
68813;DHT22;55808;48.112;11.552;2022-07-18T03:48:37;15.70;99.90
68813;DHT22;55808;48.112;11.552;2022-07-18T03:51:03;15.90;99.90
68813;DHT22;55808;48.112;11.552;2022-07-18T03:53:31;15.80;99.90
68813;DHT22;55808;48.112;11.552;2022-07-18T03:55:57;15.80;99.90
68813;DHT22;55808;48.112;11.552;2022-07-18T03:58:22;15.80;99.90
68813;DHT22;55808;48.112;11.552;2022-07-18T04:00:48;15.90;99.90
68813;DHT22;55808;48.112;11.552;2022-07-18T04:03:14;15.80;99.90
68813;DHT22;55808;48.112;11.552;2022-07-18T04:05:40;15.80;99.90
68813;DHT22;55808;48.112;11.552;2022-07-18T04:08:05;15.80;99.90
68813;DHT22;55808;48.112;11.552;2022-07-18T04:10:31;15.70;99.90
68813;DHT22;55808;48.112;11.552;2022-07-18T04:12:57;15.70;99.90
68813;DHT22;55808;48.112;11.552;2022-07-18T04:15:24;15.80;99.90
68813;DHT22;55808;48.112;11.552;2022-07-18T04:17:50;15.90;99.90
68813;DHT22;55808;48.112;11.552;2022-07-18T04:20:17;16.00;99.90
68813;DHT22;55808;48.112;11.552;2022-07-18T04:22:54;16.00;99.90
68813;DHT22;55808;48.112;11.552;2022-07-18T04:25:22;15.90;99.90
68813;DHT22;55808;48.112;11.552;2022-07-18T04:27:49;16.00;99.90
68813;DHT22;55808;48.112;11.552;2022-07-18T04:30:17;16.10;99.90
68813;DHT22;55808;48.112;11.552;2022-07-18T04:32:43;16.30;99.90
68813;DHT22;55808;48.112;11.552;2022-07-18T04:35:09;16.40;99.90
68813;DHT22;55808;48.112;11.552;2022-07-18T04:37:37;16.40;99.90
68813;DHT22;55808;48.112;11.552;2022-07-18T04:40:03;16.50;99.90
68813;DHT22;55808;48.112;11.552;2022-07-18T04:42:29;16.60;99.90
68813;DHT22;55808;48.112;11.552;2022-07-18T04:44:56;16.50;99.90
68813;DHT22;55808;48.112;11.552;2022-07-18T04:47:23;16.40;99.90
68813;DHT22;55808;48.112;11.552;2022-07-18T04:49:49;16.40;99.90
68813;DHT22;55808;48.112;11.552;2022-07-18T04:52:14;16.50;99.90
68813;DHT22;55808;48.112;11.552;2022-07-18T04:54:40;16.50;99.90
68813;DHT22;55808;48.112;11.552;2022-07-18T04:57:06;16.40;99.90
68813;DHT22;55808;48.112;11.552;2022-07-18T04:59:31;16.30;99.90
68813;DHT22;55808;48.112;11.552;2022-07-18T05:01:57;16.20;99.90
68813;DHT22;55808;48.112;11.552;2022-07-18T05:04:23;16.20;99.90
68813;DHT22;55808;48.112;11.552;2022-07-18T05:06:48;16.30;99.90
68813;DHT22;55808;48.112;11.552;2022-07-18T05:09:14;16.30;99.90
68813;DHT22;55808;48.112;11.552;2022-07-18T05:11:39;16.30;99.90
68813;DHT22;55808;48.112;11.552;2022-07-18T05:14:05;16.30;99.90
68813;DHT22;55808;48.112;11.552;2022-07-18T05:16:31;16.30;99.90
68813;DHT22;55808;48.112;11.552;2022-07-18T05:18:57;16.40;99.90
68813;DHT22;55808;48.112;11.552;2022-07-18T05:21:22;16.50;99.90
68813;DHT22;55808;48.112;11.552;2022-07-18T05:23:48;16.50;99.90
68813;DHT22;55808;48.112;11.552;2022-07-18T05:26:13;16.50;99.90
68813;DHT22;55808;48.112;11.552;2022-07-18T05:28:39;16.60;99.90
68813;DHT22;55808;48.112;11.552;2022-07-18T05:31:05;16.70;99.90
68813;DHT22;55808;48.112;11.552;2022-07-18T05:33:31;16.70;99.90
68813;DHT22;55808;48.112;11.552;2022-07-18T05:35:56;16.70;99.90
68813;DHT22;55808;48.112;11.552;2022-07-18T05:38:22;16.80;99.90
68813;DHT22;55808;48.112;11.552;2022-07-18T05:40:48;16.80;99.90
68813;DHT22;55808;48.112;11.552;2022-07-18T05:43:13;16.90;99.90
68813;DHT22;55808;48.112;11.552;2022-07-18T05:45:40;17.00;99.90
68813;DHT22;55808;48.112;11.552;2022-07-18T05:48:06;17.00;99.90
68813;DHT22;55808;48.112;11.552;2022-07-18T05:50:31;17.00;99.90
68813;DHT22;55808;48.112;11.552;2022-07-18T05:52:57;17.10;99.90
68813;DHT22;55808;48.112;11.552;2022-07-18T05:55:23;17.10;99.90
68813;DHT22;55808;48.112;11.552;2022-07-18T05:57:49;17.20;99.90
68813;DHT22;55808;48.112;11.552;2022-07-18T06:00:16;17.30;99.90
68813;DHT22;55808;48.112;11.552;2022-07-18T06:02:42;17.40;99.90
68813;DHT22;55808;48.112;11.552;2022-07-18T06:05:08;17.50;99.90
68813;DHT22;55808;48.112;11.552;2022-07-18T06:07:34;17.60;99.90
68813;DHT22;55808;48.112;11.552;2022-07-18T06:10:00;17.70;99.90
68813;DHT22;55808;48.112;11.552;2022-07-18T06:12:29;17.80;99.90
68813;DHT22;55808;48.112;11.552;2022-07-18T06:14:56;17.80;99.90
68813;DHT22;55808;48.112;11.552;2022-07-18T06:17:22;17.90;99.90
68813;DHT22;55808;48.112;11.552;2022-07-18T06:19:48;17.90;99.90
68813;DHT22;55808;48.112;11.552;2022-07-18T06:22:14;18.00;99.90
68813;DHT22;55808;48.112;11.552;2022-07-18T06:24:39;18.10;99.90
68813;DHT22;55808;48.112;11.552;2022-07-18T06:27:05;18.20;99.90
68813;DHT22;55808;48.112;11.552;2022-07-18T06:29:31;18.20;99.90
68813;DHT22;55808;48.112;11.552;2022-07-18T06:31:56;18.20;99.90
68813;DHT22;55808;48.112;11.552;2022-07-18T06:34:22;18.40;99.90
68813;DHT22;55808;48.112;11.552;2022-07-18T06:36:48;18.50;99.90
68813;DHT22;55808;48.112;11.552;2022-07-18T06:39:13;18.50;99.90
68813;DHT22;55808;48.112;11.552;2022-07-18T06:41:42;18.60;99.90
68813;DHT22;55808;48.112;11.552;2022-07-18T06:44:07;18.70;99.90
68813;DHT22;55808;48.112;11.552;2022-07-18T06:46:33;18.60;99.90
68813;DHT22;55808;48.112;11.552;2022-07-18T06:49:00;18.80;99.90
68813;DHT22;55808;48.112;11.552;2022-07-18T06:51:26;19.00;99.90
68813;DHT22;55808;48.112;11.552;2022-07-18T06:53:51;19.00;99.10
68813;DHT22;55808;48.112;11.552;2022-07-18T06:56:17;19.10;99.90
68813;DHT22;55808;48.112;11.552;2022-07-18T06:58:43;19.10;99.90
68813;DHT22;55808;48.112;11.552;2022-07-18T07:01:14;19.10;99.90
68813;DHT22;55808;48.112;11.552;2022-07-18T07:03:40;19.20;99.90
68813;DHT22;55808;48.112;11.552;2022-07-18T07:06:06;19.20;98.40
68813;DHT22;55808;48.112;11.552;2022-07-18T07:08:31;19.30;93.80
68813;DHT22;55808;48.112;11.552;2022-07-18T07:10:57;19.60;92.50
68813;DHT22;55808;48.112;11.552;2022-07-18T07:13:23;19.60;94.30
68813;DHT22;55808;48.112;11.552;2022-07-18T07:15:49;19.60;93.30
68813;DHT22;55808;48.112;11.552;2022-07-18T07:18:14;19.60;94.10
68813;DHT22;55808;48.112;11.552;2022-07-18T07:20:40;19.70;92.80
68813;DHT22;55808;48.112;11.552;2022-07-18T07:23:05;19.80;97.70
68813;DHT22;55808;48.112;11.552;2022-07-18T07:25:34;19.70;92.60
68813;DHT22;55808;48.112;11.552;2022-07-18T07:28:00;19.90;89.10
68813;DHT22;55808;48.112;11.552;2022-07-18T07:30:26;19.90;89.20
68813;DHT22;55808;48.112;11.552;2022-07-18T07:32:52;20.10;88.70
68813;DHT22;55808;48.112;11.552;2022-07-18T07:35:18;20.10;91.10
68813;DHT22;55808;48.112;11.552;2022-07-18T07:37:50;20.20;89.90
68813;DHT22;55808;48.112;11.552;2022-07-18T07:40:16;20.20;83.30
68813;DHT22;55808;48.112;11.552;2022-07-18T07:42:42;20.40;84.50
68813;DHT22;55808;48.112;11.552;2022-07-18T07:45:10;20.30;84.50
68813;DHT22;55808;48.112;11.552;2022-07-18T07:47:36;20.40;82.40
68813;DHT22;55808;48.112;11.552;2022-07-18T07:50:04;20.60;81.80
68813;DHT22;55808;48.112;11.552;2022-07-18T07:52:30;20.60;82.00
68813;DHT22;55808;48.112;11.552;2022-07-18T07:54:56;20.70;79.20
68813;DHT22;55808;48.112;11.552;2022-07-18T07:57:22;21.00;74.50
68813;DHT22;55808;48.112;11.552;2022-07-18T07:59:48;21.00;75.70
68813;DHT22;55808;48.112;11.552;2022-07-18T08:02:14;21.10;75.50
68813;DHT22;55808;48.112;11.552;2022-07-18T08:04:40;21.10;74.20
68813;DHT22;55808;48.112;11.552;2022-07-18T08:07:06;21.30;71.60
68813;DHT22;55808;48.112;11.552;2022-07-18T08:09:32;21.20;73.10
68813;DHT22;55808;48.112;11.552;2022-07-18T08:11:58;21.30;71.30
68813;DHT22;55808;48.112;11.552;2022-07-18T08:14:23;21.50;70.70
68813;DHT22;55808;48.112;11.552;2022-07-18T08:16:49;21.60;68.40
68813;DHT22;55808;48.112;11.552;2022-07-18T08:19:15;21.70;67.10
68813;DHT22;55808;48.112;11.552;2022-07-18T08:21:41;21.60;67.90
68813;DHT22;55808;48.112;11.552;2022-07-18T08:24:06;21.70;66.10
68813;DHT22;55808;48.112;11.552;2022-07-18T08:26:33;21.90;65.20
68813;DHT22;55808;48.112;11.552;2022-07-18T08:29:01;21.90;67.10
68813;DHT22;55808;48.112;11.552;2022-07-18T08:31:28;21.90;67.60
68813;DHT22;55808;48.112;11.552;2022-07-18T08:33:54;21.90;67.70
68813;DHT22;55808;48.112;11.552;2022-07-18T08:36:20;22.20;64.00
68813;DHT22;55808;48.112;11.552;2022-07-18T08:38:46;22.30;63.00
68813;DHT22;55808;48.112;11.552;2022-07-18T08:41:11;22.50;63.40
68813;DHT22;55808;48.112;11.552;2022-07-18T08:43:38;22.50;61.50
68813;DHT22;55808;48.112;11.552;2022-07-18T08:46:05;22.30;62.10
68813;DHT22;55808;48.112;11.552;2022-07-18T08:48:31;22.40;59.30
68813;DHT22;55808;48.112;11.552;2022-07-18T08:50:59;22.60;58.50
68813;DHT22;55808;48.112;11.552;2022-07-18T08:53:26;22.80;56.30
68813;DHT22;55808;48.112;11.552;2022-07-18T08:55:52;22.80;58.80
68813;DHT22;55808;48.112;11.552;2022-07-18T08:58:18;22.70;58.50
68813;DHT22;55808;48.112;11.552;2022-07-18T09:00:44;22.60;57.30
68813;DHT22;55808;48.112;11.552;2022-07-18T09:03:11;22.80;57.00
68813;DHT22;55808;48.112;11.552;2022-07-18T09:05:36;22.80;58.30
68813;DHT22;55808;48.112;11.552;2022-07-18T09:08:11;23.00;57.70
68813;DHT22;55808;48.112;11.552;2022-07-18T09:10:54;23.10;56.10
68813;DHT22;55808;48.112;11.552;2022-07-18T09:13:39;23.20;55.80
68813;DHT22;55808;48.112;11.552;2022-07-18T09:16:09;23.30;54.90
68813;DHT22;55808;48.112;11.552;2022-07-18T09:18:39;23.20;56.70
68813;DHT22;55808;48.112;11.552;2022-07-18T09:21:15;23.30;58.30
68813;DHT22;55808;48.112;11.552;2022-07-18T09:23:44;23.40;57.10
68813;DHT22;55808;48.112;11.552;2022-07-18T09:26:11;23.20;55.00
68813;DHT22;55808;48.112;11.552;2022-07-18T09:28:49;23.40;55.90
68813;DHT22;55808;48.112;11.552;2022-07-18T09:31:23;23.60;55.80
68813;DHT22;55808;48.112;11.552;2022-07-18T09:33:55;23.60;53.20
68813;DHT22;55808;48.112;11.552;2022-07-18T09:36:21;23.90;54.80
68813;DHT22;55808;48.112;11.552;2022-07-18T09:38:47;23.90;53.80
68813;DHT22;55808;48.112;11.552;2022-07-18T09:41:13;24.10;53.50
68813;DHT22;55808;48.112;11.552;2022-07-18T09:43:39;24.20;53.50
68813;DHT22;55808;48.112;11.552;2022-07-18T09:46:06;24.20;53.90
68813;DHT22;55808;48.112;11.552;2022-07-18T09:48:32;24.30;52.00
68813;DHT22;55808;48.112;11.552;2022-07-18T09:51:02;24.30;53.00
68813;DHT22;55808;48.112;11.552;2022-07-18T09:53:38;24.30;51.30
68813;DHT22;55808;48.112;11.552;2022-07-18T09:56:06;24.40;53.30
68813;DHT22;55808;48.112;11.552;2022-07-18T09:58:42;24.60;50.80
68813;DHT22;55808;48.112;11.552;2022-07-18T10:01:16;24.70;51.10
68813;DHT22;55808;48.112;11.552;2022-07-18T10:03:42;24.90;50.70
68813;DHT22;55808;48.112;11.552;2022-07-18T10:06:08;25.00;49.50
68813;DHT22;55808;48.112;11.552;2022-07-18T10:08:34;25.10;48.80
68813;DHT22;55808;48.112;11.552;2022-07-18T10:11:03;25.20;46.30
68813;DHT22;55808;48.112;11.552;2022-07-18T10:13:31;25.10;47.50
68813;DHT22;55808;48.112;11.552;2022-07-18T10:15:57;25.30;47.60
68813;DHT22;55808;48.112;11.552;2022-07-18T10:18:28;25.40;49.60
68813;DHT22;55808;48.112;11.552;2022-07-18T10:23:34;25.30;46.50
68813;DHT22;55808;48.112;11.552;2022-07-18T10:28:33;25.80;45.50
68813;DHT22;55808;48.112;11.552;2022-07-18T10:31:15;26.10;45.90
68813;DHT22;55808;48.112;11.552;2022-07-18T10:33:44;26.40;48.30
68813;DHT22;55808;48.112;11.552;2022-07-18T10:36:14;26.40;45.80
68813;DHT22;55808;48.112;11.552;2022-07-18T10:39:12;26.60;45.20
68813;DHT22;55808;48.112;11.552;2022-07-18T10:47:10;28.70;43.70
68813;DHT22;55808;48.112;11.552;2022-07-18T11:03:08;32.10;33.80
68813;DHT22;55808;48.112;11.552;2022-07-18T11:05:36;32.40;35.40
68813;DHT22;55808;48.112;11.552;2022-07-18T11:18:31;32.20;36.70
68813;DHT22;55808;48.112;11.552;2022-07-18T11:20:58;32.00;36.00
68813;DHT22;55808;48.112;11.552;2022-07-18T11:23:26;32.30;36.90
68813;DHT22;55808;48.112;11.552;2022-07-18T11:25:58;32.70;36.30
68813;DHT22;55808;48.112;11.552;2022-07-18T11:28:25;32.70;35.00
68813;DHT22;55808;48.112;11.552;2022-07-18T11:31:03;32.70;35.50
68813;DHT22;55808;48.112;11.552;2022-07-18T11:33:31;32.10;34.30
68813;DHT22;55808;48.112;11.552;2022-07-18T11:36:05;32.10;36.10
68813;DHT22;55808;48.112;11.552;2022-07-18T11:38:31;32.30;35.40
68813;DHT22;55808;48.112;11.552;2022-07-18T11:40:57;31.80;35.20
68813;DHT22;55808;48.112;11.552;2022-07-18T11:43:26;32.00;35.50
68813;DHT22;55808;48.112;11.552;2022-07-18T11:46:03;32.60;35.00
68813;DHT22;55808;48.112;11.552;2022-07-18T11:48:29;32.60;35.40
68813;DHT22;55808;48.112;11.552;2022-07-18T11:50:55;32.80;38.10
68813;DHT22;55808;48.112;11.552;2022-07-18T11:53:21;32.60;33.90
68813;DHT22;55808;48.112;11.552;2022-07-18T11:55:47;32.30;35.90
68813;DHT22;55808;48.112;11.552;2022-07-18T11:58:15;31.50;33.70
68813;DHT22;55808;48.112;11.552;2022-07-18T12:00:42;30.40;36.00
68813;DHT22;55808;48.112;11.552;2022-07-18T12:03:11;30.00;36.00
68813;DHT22;55808;48.112;11.552;2022-07-18T12:05:39;29.50;39.80
68813;DHT22;55808;48.112;11.552;2022-07-18T12:08:34;29.10;38.60
68813;DHT22;55808;48.112;11.552;2022-07-18T12:16:33;29.40;39.10
68813;DHT22;55808;48.112;11.552;2022-07-18T12:19:05;29.10;39.70
68813;DHT22;55808;48.112;11.552;2022-07-18T12:21:43;29.30;42.30
68813;DHT22;55808;48.112;11.552;2022-07-18T12:35:11;29.90;45.20
68813;DHT22;55808;48.112;11.552;2022-07-18T12:37:37;29.60;40.90
68813;DHT22;55808;48.112;11.552;2022-07-18T12:40:08;29.60;41.80
68813;DHT22;55808;48.112;11.552;2022-07-18T12:45:03;29.70;41.50
68813;DHT22;55808;48.112;11.552;2022-07-18T12:47:29;29.60;41.40
68813;DHT22;55808;48.112;11.552;2022-07-18T12:49:55;29.30;40.30
68813;DHT22;55808;48.112;11.552;2022-07-18T12:52:21;29.00;39.10
68813;DHT22;55808;48.112;11.552;2022-07-18T12:54:47;29.00;43.00
68813;DHT22;55808;48.112;11.552;2022-07-18T12:57:13;28.80;40.80
68813;DHT22;55808;48.112;11.552;2022-07-18T12:59:39;29.00;39.40
68813;DHT22;55808;48.112;11.552;2022-07-18T13:02:05;29.20;40.70
68813;DHT22;55808;48.112;11.552;2022-07-18T13:04:31;29.00;40.80
68813;DHT22;55808;48.112;11.552;2022-07-18T13:06:57;29.30;40.60
68813;DHT22;55808;48.112;11.552;2022-07-18T13:09:22;29.60;41.90
68813;DHT22;55808;48.112;11.552;2022-07-18T13:11:48;29.80;39.70
68813;DHT22;55808;48.112;11.552;2022-07-18T13:14:15;29.60;39.90
68813;DHT22;55808;48.112;11.552;2022-07-18T13:16:42;29.70;40.80
68813;DHT22;55808;48.112;11.552;2022-07-18T13:19:11;29.80;41.10
68813;DHT22;55808;48.112;11.552;2022-07-18T13:21:36;30.00;41.80
68813;DHT22;55808;48.112;11.552;2022-07-18T13:24:02;30.10;41.30
68813;DHT22;55808;48.112;11.552;2022-07-18T13:26:28;30.30;43.10
68813;DHT22;55808;48.112;11.552;2022-07-18T13:28:54;30.40;43.10
68813;DHT22;55808;48.112;11.552;2022-07-18T13:31:20;30.40;40.50
68813;DHT22;55808;48.112;11.552;2022-07-18T13:33:45;30.60;45.10
68813;DHT22;55808;48.112;11.552;2022-07-18T13:36:13;30.60;42.30
68813;DHT22;55808;48.112;11.552;2022-07-18T13:38:39;30.60;38.40
68813;DHT22;55808;48.112;11.552;2022-07-18T13:41:05;30.10;36.60
68813;DHT22;55808;48.112;11.552;2022-07-18T13:43:31;30.20;38.40
68813;DHT22;55808;48.112;11.552;2022-07-18T13:45:56;30.30;39.70
68813;DHT22;55808;48.112;11.552;2022-07-18T13:48:22;30.30;41.70
68813;DHT22;55808;48.112;11.552;2022-07-18T13:50:48;30.30;40.40
68813;DHT22;55808;48.112;11.552;2022-07-18T13:53:13;30.40;39.90
68813;DHT22;55808;48.112;11.552;2022-07-18T13:55:39;30.50;41.50
68813;DHT22;55808;48.112;11.552;2022-07-18T13:58:05;30.30;39.30
68813;DHT22;55808;48.112;11.552;2022-07-18T14:00:31;30.50;40.90
68813;DHT22;55808;48.112;11.552;2022-07-18T14:02:57;30.60;40.40
68813;DHT22;55808;48.112;11.552;2022-07-18T14:05:23;30.60;39.20
68813;DHT22;55808;48.112;11.552;2022-07-18T14:07:51;30.60;40.10
68813;DHT22;55808;48.112;11.552;2022-07-18T14:10:16;30.60;39.40
68813;DHT22;55808;48.112;11.552;2022-07-18T14:12:43;30.70;38.40
68813;DHT22;55808;48.112;11.552;2022-07-18T14:15:10;30.90;39.70
68813;DHT22;55808;48.112;11.552;2022-07-18T14:17:36;30.90;39.50
68813;DHT22;55808;48.112;11.552;2022-07-18T14:20:03;31.00;40.00
68813;DHT22;55808;48.112;11.552;2022-07-18T14:22:29;31.00;38.80
68813;DHT22;55808;48.112;11.552;2022-07-18T14:24:54;30.90;39.50
68813;DHT22;55808;48.112;11.552;2022-07-18T14:27:20;30.80;41.10
68813;DHT22;55808;48.112;11.552;2022-07-18T14:29:46;30.60;38.60
68813;DHT22;55808;48.112;11.552;2022-07-18T14:32:11;30.50;38.10
68813;DHT22;55808;48.112;11.552;2022-07-18T14:34:37;30.40;39.00
68813;DHT22;55808;48.112;11.552;2022-07-18T14:37:03;30.50;40.00
68813;DHT22;55808;48.112;11.552;2022-07-18T14:39:28;30.70;41.20
68813;DHT22;55808;48.112;11.552;2022-07-18T14:41:54;30.80;40.90
68813;DHT22;55808;48.112;11.552;2022-07-18T14:44:20;30.80;40.30
68813;DHT22;55808;48.112;11.552;2022-07-18T14:46:48;30.80;40.40
68813;DHT22;55808;48.112;11.552;2022-07-18T14:49:14;30.90;39.80
68813;DHT22;55808;48.112;11.552;2022-07-18T14:51:40;31.00;39.90
68813;DHT22;55808;48.112;11.552;2022-07-18T14:54:05;31.10;40.20
68813;DHT22;55808;48.112;11.552;2022-07-18T14:56:31;30.80;39.60
68813;DHT22;55808;48.112;11.552;2022-07-18T14:58:57;30.80;39.10
68813;DHT22;55808;48.112;11.552;2022-07-18T15:01:22;31.00;39.90
68813;DHT22;55808;48.112;11.552;2022-07-18T15:03:50;30.90;40.00
68813;DHT22;55808;48.112;11.552;2022-07-18T15:06:16;30.80;40.20
68813;DHT22;55808;48.112;11.552;2022-07-18T15:08:41;30.60;39.30
68813;DHT22;55808;48.112;11.552;2022-07-18T15:11:07;30.70;38.90
68813;DHT22;55808;48.112;11.552;2022-07-18T15:13:33;30.80;41.10
68813;DHT22;55808;48.112;11.552;2022-07-18T15:15:58;30.70;40.20
68813;DHT22;55808;48.112;11.552;2022-07-18T15:18:24;30.60;39.40
68813;DHT22;55808;48.112;11.552;2022-07-18T15:20:49;30.20;38.50
68813;DHT22;55808;48.112;11.552;2022-07-18T15:23:15;30.40;38.50
68813;DHT22;55808;48.112;11.552;2022-07-18T15:25:41;30.60;41.10
68813;DHT22;55808;48.112;11.552;2022-07-18T15:28:06;30.90;39.80
68813;DHT22;55808;48.112;11.552;2022-07-18T15:30:32;31.00;39.40
68813;DHT22;55808;48.112;11.552;2022-07-18T15:32:58;31.00;39.20
68813;DHT22;55808;48.112;11.552;2022-07-18T15:35:23;30.90;39.90
68813;DHT22;55808;48.112;11.552;2022-07-18T15:37:49;30.90;41.10
68813;DHT22;55808;48.112;11.552;2022-07-18T15:40:15;30.80;39.50
68813;DHT22;55808;48.112;11.552;2022-07-18T15:42:40;30.70;39.60
68813;DHT22;55808;48.112;11.552;2022-07-18T15:45:06;30.20;39.10
68813;DHT22;55808;48.112;11.552;2022-07-18T15:47:32;30.40;38.50
68813;DHT22;55808;48.112;11.552;2022-07-18T15:49:58;30.70;40.70
68813;DHT22;55808;48.112;11.552;2022-07-18T15:52:23;30.60;40.80
68813;DHT22;55808;48.112;11.552;2022-07-18T15:54:49;30.60;39.70
68813;DHT22;55808;48.112;11.552;2022-07-18T15:57:15;30.60;41.20
68813;DHT22;55808;48.112;11.552;2022-07-18T15:59:40;30.80;41.60
68813;DHT22;55808;48.112;11.552;2022-07-18T16:02:07;30.80;39.80
68813;DHT22;55808;48.112;11.552;2022-07-18T16:04:33;30.80;41.50
68813;DHT22;55808;48.112;11.552;2022-07-18T16:06:59;30.80;42.00